< < Back
Terminal Aerodrome Forecast


Current Version              Previous Versions:   1  2  3  4  5  6  7  8  9  

Terminal Aerodrome Forecast

046
FTUS42 KGSP 281120
TAFAVL
TAF
KAVL 281120Z 2812/0112 16004KT P6SM OVC035
     FM281700 13005KT P6SM SCT035 BKN060
     FM010000 13006KT P6SM BKN020
     FM010300 13004KT P6SM BKN010
     FM010800 13003KT P6SM -FZRA OVC013=



Latest METAR

455
SAUS70 KWBC 281200 RRB
MTRAVL
METAR KAVL 281154Z 14003KT 10SM OVC030 M03/M07 A3057 RMK AO2 SLP369
T10281072 11028 21050 53021


USA.gov is the U.S. government's official web portal to all federal, state and local government web resources and services.